Terminal Aerodrome Forecast
Issued by NWS

Home | Current Version | Previous Version | Text Only | Print | Product List | Glossary On
Versions: 1 2 3 4 5 6 7 8 9 10 11 12 13 14 15 16 17 18 19 20 21 22 23 24 25 26 27 28 29 30 31
223
FTUS41 KGYX 221129
TAFLEB
TAF
KLEB 221129Z 2212/2312 36005KT P6SM BKN080
      TEMPO 2218/2222 4SM -SHSN BR OVC025
     FM222300 00000KT P6SM SCT200=

USA.gov is the U.S. government's official web portal to all federal, state and local government web resources and services.